sensor_id;sensor_type;location;lat;lon;timestamp;P1;durP1;ratioP1;P2;durP2;ratioP2
5129;SDS011;2583;50.946;6.954;2023-10-09T00:01:26;20.87;;;14.57;;
5129;SDS011;2583;50.946;6.954;2023-10-09T00:03:53;18.63;;;14.33;;
5129;SDS011;2583;50.946;6.954;2023-10-09T00:06:21;21.17;;;13.53;;
5129;SDS011;2583;50.946;6.954;2023-10-09T00:09:04;20.90;;;13.90;;
5129;SDS011;2583;50.946;6.954;2023-10-09T00:11:52;23.47;;;13.40;;
5129;SDS011;2583;50.946;6.954;2023-10-09T00:14:27;20.80;;;14.00;;
5129;SDS011;2583;50.946;6.954;2023-10-09T00:16:56;18.20;;;12.93;;
5129;SDS011;2583;50.946;6.954;2023-10-09T00:19:48;18.83;;;13.27;;
5129;SDS011;2583;50.946;6.954;2023-10-09T00:22:21;20.10;;;13.67;;
5129;SDS011;2583;50.946;6.954;2023-10-09T00:24:50;18.47;;;12.80;;
5129;SDS011;2583;50.946;6.954;2023-10-09T00:27:36;20.20;;;13.23;;
5129;SDS011;2583;50.946;6.954;2023-10-09T00:30:13;18.50;;;13.40;;
5129;SDS011;2583;50.946;6.954;2023-10-09T00:32:45;17.40;;;12.37;;
5129;SDS011;2583;50.946;6.954;2023-10-09T00:35:18;15.27;;;12.33;;
5129;SDS011;2583;50.946;6.954;2023-10-09T00:38:04;20.00;;;12.23;;
5129;SDS011;2583;50.946;6.954;2023-10-09T00:40:51;18.27;;;12.50;;
5129;SDS011;2583;50.946;6.954;2023-10-09T00:43:33;18.50;;;12.33;;
5129;SDS011;2583;50.946;6.954;2023-10-09T00:46:04;17.30;;;12.03;;
5129;SDS011;2583;50.946;6.954;2023-10-09T00:48:42;15.93;;;12.33;;
5129;SDS011;2583;50.946;6.954;2023-10-09T00:51:14;16.97;;;12.20;;
5129;SDS011;2583;50.946;6.954;2023-10-09T00:53:48;17.83;;;12.87;;
5129;SDS011;2583;50.946;6.954;2023-10-09T00:56:21;14.70;;;12.07;;
5129;SDS011;2583;50.946;6.954;2023-10-09T00:58:58;24.27;;;13.57;;
5129;SDS011;2583;50.946;6.954;2023-10-09T01:01:40;17.40;;;11.70;;
5129;SDS011;2583;50.946;6.954;2023-10-09T01:04:11;18.90;;;11.73;;
5129;SDS011;2583;50.946;6.954;2023-10-09T01:06:42;19.53;;;12.50;;
5129;SDS011;2583;50.946;6.954;2023-10-09T01:09:11;19.50;;;12.63;;
5129;SDS011;2583;50.946;6.954;2023-10-09T01:11:41;22.63;;;13.10;;
5129;SDS011;2583;50.946;6.954;2023-10-09T01:14:15;17.13;;;12.13;;
5129;SDS011;2583;50.946;6.954;2023-10-09T01:16:42;16.30;;;11.90;;
5129;SDS011;2583;50.946;6.954;2023-10-09T01:19:10;17.17;;;12.03;;
5129;SDS011;2583;50.946;6.954;2023-10-09T01:21:46;15.57;;;12.13;;
5129;SDS011;2583;50.946;6.954;2023-10-09T01:24:14;16.93;;;10.73;;
5129;SDS011;2583;50.946;6.954;2023-10-09T01:26:43;15.77;;;12.03;;
5129;SDS011;2583;50.946;6.954;2023-10-09T01:34:18;14.80;;;11.80;;
5129;SDS011;2583;50.946;6.954;2023-10-09T01:36:51;15.53;;;11.17;;
5129;SDS011;2583;50.946;6.954;2023-10-09T01:39:22;16.87;;;10.97;;
5129;SDS011;2583;50.946;6.954;2023-10-09T01:42:06;12.83;;;11.50;;
5129;SDS011;2583;50.946;6.954;2023-10-09T01:44:32;15.47;;;10.07;;
5129;SDS011;2583;50.946;6.954;2023-10-09T01:47:09;15.30;;;9.50;;
5129;SDS011;2583;50.946;6.954;2023-10-09T01:49:40;11.50;;;10.13;;
5129;SDS011;2583;50.946;6.954;2023-10-09T01:52:10;12.30;;;10.23;;
5129;SDS011;2583;50.946;6.954;2023-10-09T01:54:42;15.67;;;10.17;;
5129;SDS011;2583;50.946;6.954;2023-10-09T01:57:16;13.70;;;10.00;;
5129;SDS011;2583;50.946;6.954;2023-10-09T01:59:51;13.87;;;10.07;;
5129;SDS011;2583;50.946;6.954;2023-10-09T02:02:21;10.57;;;9.03;;
5129;SDS011;2583;50.946;6.954;2023-10-09T02:05:02;12.17;;;9.73;;
5129;SDS011;2583;50.946;6.954;2023-10-09T02:07:51;11.80;;;9.90;;
5129;SDS011;2583;50.946;6.954;2023-10-09T02:10:19;15.27;;;10.27;;
5129;SDS011;2583;50.946;6.954;2023-10-09T02:13:03;13.33;;;10.47;;
5129;SDS011;2583;50.946;6.954;2023-10-09T02:15:38;11.90;;;9.27;;
5129;SDS011;2583;50.946;6.954;2023-10-09T02:23:31;14.30;;;10.03;;
5129;SDS011;2583;50.946;6.954;2023-10-09T02:26:05;10.93;;;9.50;;
5129;SDS011;2583;50.946;6.954;2023-10-09T02:28:32;11.50;;;8.13;;
5129;SDS011;2583;50.946;6.954;2023-10-09T02:31:00;12.27;;;9.13;;
5129;SDS011;2583;50.946;6.954;2023-10-09T02:33:36;11.30;;;9.10;;
5129;SDS011;2583;50.946;6.954;2023-10-09T02:36:06;12.70;;;8.57;;
5129;SDS011;2583;50.946;6.954;2023-10-09T02:38:33;9.83;;;8.83;;
5129;SDS011;2583;50.946;6.954;2023-10-09T02:41:01;10.47;;;8.60;;
5129;SDS011;2583;50.946;6.954;2023-10-09T02:43:29;11.73;;;10.17;;
5129;SDS011;2583;50.946;6.954;2023-10-09T02:46:17;10.43;;;9.00;;
5129;SDS011;2583;50.946;6.954;2023-10-09T02:48:55;10.13;;;8.90;;
5129;SDS011;2583;50.946;6.954;2023-10-09T02:51:24;12.50;;;8.70;;
5129;SDS011;2583;50.946;6.954;2023-10-09T02:53:55;10.60;;;8.93;;
5129;SDS011;2583;50.946;6.954;2023-10-09T02:56:24;11.03;;;9.10;;
5129;SDS011;2583;50.946;6.954;2023-10-09T02:59:06;11.67;;;9.77;;
5129;SDS011;2583;50.946;6.954;2023-10-09T03:01:36;10.70;;;9.00;;
5129;SDS011;2583;50.946;6.954;2023-10-09T03:04:04;10.50;;;9.47;;
5129;SDS011;2583;50.946;6.954;2023-10-09T03:06:32;11.67;;;9.00;;
5129;SDS011;2583;50.946;6.954;2023-10-09T03:09:04;11.00;;;8.40;;
5129;SDS011;2583;50.946;6.954;2023-10-09T03:11:49;10.83;;;8.93;;
5129;SDS011;2583;50.946;6.954;2023-10-09T03:14:29;14.60;;;9.70;;
5129;SDS011;2583;50.946;6.954;2023-10-09T03:17:01;13.53;;;9.63;;
5129;SDS011;2583;50.946;6.954;2023-10-09T03:19:29;12.87;;;9.30;;
5129;SDS011;2583;50.946;6.954;2023-10-09T03:22:07;12.00;;;9.87;;
5129;SDS011;2583;50.946;6.954;2023-10-09T03:24:37;11.60;;;8.20;;
5129;SDS011;2583;50.946;6.954;2023-10-09T03:27:04;10.53;;;8.30;;
5129;SDS011;2583;50.946;6.954;2023-10-09T03:29:31;10.50;;;9.40;;
5129;SDS011;2583;50.946;6.954;2023-10-09T03:31:59;9.20;;;8.40;;
5129;SDS011;2583;50.946;6.954;2023-10-09T03:34:26;11.80;;;9.10;;
5129;SDS011;2583;50.946;6.954;2023-10-09T03:36:54;11.83;;;8.77;;
5129;SDS011;2583;50.946;6.954;2023-10-09T03:39:31;10.20;;;9.00;;
5129;SDS011;2583;50.946;6.954;2023-10-09T03:42:07;11.10;;;8.50;;
5129;SDS011;2583;50.946;6.954;2023-10-09T03:44:46;10.10;;;8.00;;
5129;SDS011;2583;50.946;6.954;2023-10-09T03:47:19;8.90;;;8.10;;
5129;SDS011;2583;50.946;6.954;2023-10-09T03:49:50;9.53;;;8.60;;
5129;SDS011;2583;50.946;6.954;2023-10-09T03:52:21;13.23;;;8.43;;
5129;SDS011;2583;50.946;6.954;2023-10-09T03:54:52;9.83;;;8.80;;
5129;SDS011;2583;50.946;6.954;2023-10-09T03:57:19;13.00;;;9.93;;
5129;SDS011;2583;50.946;6.954;2023-10-09T03:59:46;10.37;;;8.90;;
5129;SDS011;2583;50.946;6.954;2023-10-09T04:02:14;11.53;;;9.60;;
5129;SDS011;2583;50.946;6.954;2023-10-09T04:04:42;11.20;;;9.43;;
5129;SDS011;2583;50.946;6.954;2023-10-09T04:07:14;11.80;;;9.40;;
5129;SDS011;2583;50.946;6.954;2023-10-09T04:09:44;12.10;;;9.37;;
5129;SDS011;2583;50.946;6.954;2023-10-09T04:12:14;10.80;;;9.80;;
5129;SDS011;2583;50.946;6.954;2023-10-09T04:14:51;13.00;;;8.90;;
5129;SDS011;2583;50.946;6.954;2023-10-09T04:17:21;12.23;;;9.27;;
5129;SDS011;2583;50.946;6.954;2023-10-09T04:20:02;10.33;;;9.07;;
5129;SDS011;2583;50.946;6.954;2023-10-09T04:22:45;13.03;;;9.10;;
5129;SDS011;2583;50.946;6.954;2023-10-09T04:25:26;15.63;;;8.47;;
5129;SDS011;2583;50.946;6.954;2023-10-09T04:27:55;10.20;;;8.77;;
5129;SDS011;2583;50.946;6.954;2023-10-09T04:30:50;18.60;;;9.23;;
5129;SDS011;2583;50.946;6.954;2023-10-09T04:33:22;9.40;;;8.30;;
5129;SDS011;2583;50.946;6.954;2023-10-09T04:36:07;10.33;;;9.10;;
5129;SDS011;2583;50.946;6.954;2023-10-09T04:38:52;9.67;;;8.87;;
5129;SDS011;2583;50.946;6.954;2023-10-09T04:41:42;14.53;;;8.67;;
5129;SDS011;2583;50.946;6.954;2023-10-09T04:44:09;14.30;;;9.00;;
5129;SDS011;2583;50.946;6.954;2023-10-09T04:46:47;8.27;;;7.40;;
5129;SDS011;2583;50.946;6.954;2023-10-09T04:49:37;8.57;;;7.70;;
5129;SDS011;2583;50.946;6.954;2023-10-09T04:52:22;9.90;;;7.70;;
5129;SDS011;2583;50.946;6.954;2023-10-09T04:54:52;9.43;;;7.50;;
5129;SDS011;2583;50.946;6.954;2023-10-09T04:57:34;9.23;;;7.10;;
5129;SDS011;2583;50.946;6.954;2023-10-09T05:05:24;7.70;;;7.00;;
5129;SDS011;2583;50.946;6.954;2023-10-09T05:08:11;9.40;;;7.27;;
5129;SDS011;2583;50.946;6.954;2023-10-09T05:10:46;12.00;;;8.30;;
5129;SDS011;2583;50.946;6.954;2023-10-09T05:13:27;11.13;;;7.87;;
5129;SDS011;2583;50.946;6.954;2023-10-09T05:16:05;8.70;;;6.63;;
5129;SDS011;2583;50.946;6.954;2023-10-09T05:18:45;7.40;;;6.70;;
5129;SDS011;2583;50.946;6.954;2023-10-09T05:21:23;9.70;;;7.50;;
5129;SDS011;2583;50.946;6.954;2023-10-09T05:23:58;13.30;;;6.90;;
5129;SDS011;2583;50.946;6.954;2023-10-09T05:26:42;11.57;;;6.93;;
5129;SDS011;2583;50.946;6.954;2023-10-09T05:29:19;7.63;;;6.83;;
5129;SDS011;2583;50.946;6.954;2023-10-09T05:32:02;8.37;;;6.47;;
5129;SDS011;2583;50.946;6.954;2023-10-09T05:34:31;7.20;;;6.63;;
5129;SDS011;2583;50.946;6.954;2023-10-09T05:37:03;9.13;;;5.97;;
5129;SDS011;2583;50.946;6.954;2023-10-09T05:39:49;7.83;;;7.03;;
5129;SDS011;2583;50.946;6.954;2023-10-09T05:42:29;10.73;;;6.73;;
5129;SDS011;2583;50.946;6.954;2023-10-09T05:45:04;10.80;;;7.53;;
5129;SDS011;2583;50.946;6.954;2023-10-09T05:47:45;7.77;;;7.03;;
5129;SDS011;2583;50.946;6.954;2023-10-09T05:50:20;24.77;;;8.40;;
5129;SDS011;2583;50.946;6.954;2023-10-09T05:52:48;11.57;;;6.63;;
5129;SDS011;2583;50.946;6.954;2023-10-09T05:55:22;9.47;;;8.53;;
5129;SDS011;2583;50.946;6.954;2023-10-09T05:58:08;8.43;;;6.20;;
5129;SDS011;2583;50.946;6.954;2023-10-09T06:00:53;10.90;;;6.57;;
5129;SDS011;2583;50.946;6.954;2023-10-09T06:03:38;7.73;;;6.47;;
5129;SDS011;2583;50.946;6.954;2023-10-09T06:06:21;10.60;;;6.30;;
5129;SDS011;2583;50.946;6.954;2023-10-09T06:09:04;14.33;;;6.10;;
5129;SDS011;2583;50.946;6.954;2023-10-09T06:11:42;8.17;;;5.43;;
5129;SDS011;2583;50.946;6.954;2023-10-09T06:14:16;8.30;;;7.27;;
5129;SDS011;2583;50.946;6.954;2023-10-09T06:16:56;11.97;;;7.50;;
5129;SDS011;2583;50.946;6.954;2023-10-09T06:19:24;15.50;;;7.60;;
5129;SDS011;2583;50.946;6.954;2023-10-09T06:21:56;7.60;;;5.90;;
5129;SDS011;2583;50.946;6.954;2023-10-09T06:24:30;11.07;;;6.33;;
5129;SDS011;2583;50.946;6.954;2023-10-09T06:27:08;13.40;;;6.20;;
5129;SDS011;2583;50.946;6.954;2023-10-09T06:29:36;10.80;;;6.40;;
5129;SDS011;2583;50.946;6.954;2023-10-09T06:32:05;10.70;;;5.93;;
5129;SDS011;2583;50.946;6.954;2023-10-09T06:34:45;11.07;;;6.73;;
5129;SDS011;2583;50.946;6.954;2023-10-09T06:37:23;9.43;;;7.27;;
5129;SDS011;2583;50.946;6.954;2023-10-09T06:42:27;14.57;;;7.10;;
5129;SDS011;2583;50.946;6.954;2023-10-09T06:45:01;9.47;;;6.10;;
5129;SDS011;2583;50.946;6.954;2023-10-09T06:47:35;9.10;;;6.23;;
5129;SDS011;2583;50.946;6.954;2023-10-09T06:50:11;12.40;;;6.60;;
5129;SDS011;2583;50.946;6.954;2023-10-09T06:52:47;6.87;;;5.83;;
5129;SDS011;2583;50.946;6.954;2023-10-09T06:55:24;9.73;;;6.40;;
5129;SDS011;2583;50.946;6.954;2023-10-09T06:58:03;7.20;;;6.10;;
5129;SDS011;2583;50.946;6.954;2023-10-09T07:00:39;6.57;;;5.97;;
5129;SDS011;2583;50.946;6.954;2023-10-09T07:03:20;12.50;;;7.07;;
5129;SDS011;2583;50.946;6.954;2023-10-09T07:06:03;7.43;;;6.07;;
5129;SDS011;2583;50.946;6.954;2023-10-09T07:08:51;10.23;;;6.50;;
5129;SDS011;2583;50.946;6.954;2023-10-09T07:11:38;8.20;;;7.07;;
5129;SDS011;2583;50.946;6.954;2023-10-09T07:16:56;7.33;;;6.60;;
5129;SDS011;2583;50.946;6.954;2023-10-09T07:19:25;9.90;;;6.90;;
5129;SDS011;2583;50.946;6.954;2023-10-09T07:22:01;10.90;;;6.50;;
5129;SDS011;2583;50.946;6.954;2023-10-09T07:24:42;12.60;;;7.50;;
5129;SDS011;2583;50.946;6.954;2023-10-09T07:27:16;7.73;;;6.53;;
5129;SDS011;2583;50.946;6.954;2023-10-09T07:29:44;12.13;;;7.50;;
5129;SDS011;2583;50.946;6.954;2023-10-09T07:32:17;7.60;;;6.80;;
5129;SDS011;2583;50.946;6.954;2023-10-09T07:34:50;8.07;;;6.10;;
5129;SDS011;2583;50.946;6.954;2023-10-09T07:37:21;7.50;;;6.80;;
5129;SDS011;2583;50.946;6.954;2023-10-09T07:39:52;11.20;;;7.40;;
5129;SDS011;2583;50.946;6.954;2023-10-09T07:42:25;8.47;;;7.30;;
5129;SDS011;2583;50.946;6.954;2023-10-09T07:45:07;17.27;;;7.27;;
5129;SDS011;2583;50.946;6.954;2023-10-09T07:47:47;8.00;;;6.40;;
5129;SDS011;2583;50.946;6.954;2023-10-09T07:50:26;9.80;;;6.87;;
5129;SDS011;2583;50.946;6.954;2023-10-09T07:53:15;13.53;;;7.37;;
5129;SDS011;2583;50.946;6.954;2023-10-09T07:55:45;8.07;;;6.67;;
5129;SDS011;2583;50.946;6.954;2023-10-09T07:58:25;7.50;;;6.80;;
5129;SDS011;2583;50.946;6.954;2023-10-09T08:00:52;13.70;;;8.80;;
5129;SDS011;2583;50.946;6.954;2023-10-09T08:03:42;11.30;;;7.50;;
5129;SDS011;2583;50.946;6.954;2023-10-09T08:06:15;9.37;;;7.20;;
5129;SDS011;2583;50.946;6.954;2023-10-09T08:09:01;10.27;;;7.70;;
5129;SDS011;2583;50.946;6.954;2023-10-09T08:11:49;11.10;;;6.93;;
5129;SDS011;2583;50.946;6.954;2023-10-09T08:14:34;11.43;;;6.90;;
5129;SDS011;2583;50.946;6.954;2023-10-09T08:17:01;10.00;;;6.53;;
5129;SDS011;2583;50.946;6.954;2023-10-09T08:19:50;9.57;;;7.53;;
5129;SDS011;2583;50.946;6.954;2023-10-09T08:22:24;9.33;;;7.40;;
5129;SDS011;2583;50.946;6.954;2023-10-09T08:24:52;8.80;;;7.17;;
5129;SDS011;2583;50.946;6.954;2023-10-09T08:30:05;10.67;;;7.27;;
5129;SDS011;2583;50.946;6.954;2023-10-09T08:32:45;9.20;;;7.03;;
5129;SDS011;2583;50.946;6.954;2023-10-09T08:35:34;11.30;;;7.13;;
5129;SDS011;2583;50.946;6.954;2023-10-09T08:38:14;13.33;;;7.67;;
5129;SDS011;2583;50.946;6.954;2023-10-09T08:40:50;7.40;;;6.47;;
5129;SDS011;2583;50.946;6.954;2023-10-09T08:43:19;8.53;;;7.70;;
5129;SDS011;2583;50.946;6.954;2023-10-09T08:45:48;7.20;;;6.47;;
5129;SDS011;2583;50.946;6.954;2023-10-09T08:48:29;6.87;;;6.27;;
5129;SDS011;2583;50.946;6.954;2023-10-09T08:50:56;12.40;;;6.57;;
5129;SDS011;2583;50.946;6.954;2023-10-09T08:53:24;7.60;;;6.33;;
5129;SDS011;2583;50.946;6.954;2023-10-09T08:55:54;10.23;;;6.40;;
5129;SDS011;2583;50.946;6.954;2023-10-09T08:58:22;9.90;;;6.43;;
5129;SDS011;2583;50.946;6.954;2023-10-09T09:00:59;9.50;;;6.30;;
5129;SDS011;2583;50.946;6.954;2023-10-09T09:03:34;10.63;;;6.70;;
5129;SDS011;2583;50.946;6.954;2023-10-09T09:06:09;10.57;;;7.23;;
5129;SDS011;2583;50.946;6.954;2023-10-09T09:08:40;10.33;;;6.83;;
5129;SDS011;2583;50.946;6.954;2023-10-09T09:11:11;10.73;;;6.80;;
5129;SDS011;2583;50.946;6.954;2023-10-09T09:16:45;13.03;;;8.10;;
5129;SDS011;2583;50.946;6.954;2023-10-09T09:19:15;10.47;;;6.67;;
5129;SDS011;2583;50.946;6.954;2023-10-09T09:21:49;10.37;;;6.77;;
5129;SDS011;2583;50.946;6.954;2023-10-09T09:24:36;20.10;;;7.60;;
5129;SDS011;2583;50.946;6.954;2023-10-09T09:27:05;7.20;;;6.60;;
5129;SDS011;2583;50.946;6.954;2023-10-09T09:29:57;8.27;;;6.70;;
5129;SDS011;2583;50.946;6.954;2023-10-09T09:32:33;8.73;;;7.20;;
5129;SDS011;2583;50.946;6.954;2023-10-09T09:35:03;14.50;;;6.80;;
5129;SDS011;2583;50.946;6.954;2023-10-09T09:37:32;8.70;;;5.77;;
5129;SDS011;2583;50.946;6.954;2023-10-09T09:40:16;8.83;;;6.20;;
5129;SDS011;2583;50.946;6.954;2023-10-09T09:43:00;8.27;;;6.00;;
5129;SDS011;2583;50.946;6.954;2023-10-09T09:45:48;12.57;;;7.20;;
5129;SDS011;2583;50.946;6.954;2023-10-09T09:48:19;10.63;;;6.60;;
5129;SDS011;2583;50.946;6.954;2023-10-09T09:50:46;10.20;;;6.17;;
5129;SDS011;2583;50.946;6.954;2023-10-09T09:53:14;10.17;;;5.90;;
5129;SDS011;2583;50.946;6.954;2023-10-09T09:55:45;11.37;;;6.90;;
5129;SDS011;2583;50.946;6.954;2023-10-09T09:58:22;5.80;;;5.30;;
5129;SDS011;2583;50.946;6.954;2023-10-09T10:00:50;10.20;;;6.20;;
5129;SDS011;2583;50.946;6.954;2023-10-09T10:03:25;8.83;;;6.27;;
5129;SDS011;2583;50.946;6.954;2023-10-09T10:05:56;7.83;;;5.90;;
5129;SDS011;2583;50.946;6.954;2023-10-09T10:08:23;6.30;;;5.67;;
5129;SDS011;2583;50.946;6.954;2023-10-09T10:11:00;6.80;;;5.37;;
5129;SDS011;2583;50.946;6.954;2023-10-09T10:16:16;11.10;;;5.63;;
5129;SDS011;2583;50.946;6.954;2023-10-09T10:19:02;8.23;;;5.43;;
5129;SDS011;2583;50.946;6.954;2023-10-09T10:21:33;13.93;;;6.07;;
5129;SDS011;2583;50.946;6.954;2023-10-09T10:32:55;9.13;;;5.00;;
5129;SDS011;2583;50.946;6.954;2023-10-09T10:35:24;8.77;;;5.20;;
5129;SDS011;2583;50.946;6.954;2023-10-09T10:38:40;6.90;;;5.10;;
5129;SDS011;2583;50.946;6.954;2023-10-09T10:41:09;7.00;;;5.07;;
5129;SDS011;2583;50.946;6.954;2023-10-09T10:43:39;9.40;;;5.40;;
5129;SDS011;2583;50.946;6.954;2023-10-09T10:46:14;8.30;;;4.77;;
5129;SDS011;2583;50.946;6.954;2023-10-09T10:48:51;4.23;;;3.90;;
5129;SDS011;2583;50.946;6.954;2023-10-09T10:51:34;5.73;;;5.23;;
5129;SDS011;2583;50.946;6.954;2023-10-09T10:54:04;8.57;;;4.63;;
5129;SDS011;2583;50.946;6.954;2023-10-09T10:56:51;14.03;;;5.43;;
5129;SDS011;2583;50.946;6.954;2023-10-09T10:59:18;8.77;;;4.77;;
5129;SDS011;2583;50.946;6.954;2023-10-09T11:01:56;6.23;;;4.53;;
5129;SDS011;2583;50.946;6.954;2023-10-09T11:04:26;7.73;;;4.47;;
5129;SDS011;2583;50.946;6.954;2023-10-09T11:06:54;6.17;;;4.57;;
5129;SDS011;2583;50.946;6.954;2023-10-09T11:09:42;11.70;;;4.97;;
5129;SDS011;2583;50.946;6.954;2023-10-09T11:12:28;7.20;;;4.50;;
5129;SDS011;2583;50.946;6.954;2023-10-09T11:15:14;8.70;;;4.37;;
5129;SDS011;2583;50.946;6.954;2023-10-09T11:18:06;6.00;;;4.03;;
5129;SDS011;2583;50.946;6.954;2023-10-09T11:20:34;7.47;;;4.17;;
5129;SDS011;2583;50.946;6.954;2023-10-09T11:23:05;8.33;;;4.33;;
5129;SDS011;2583;50.946;6.954;2023-10-09T11:25:39;16.20;;;5.73;;
5129;SDS011;2583;50.946;6.954;2023-10-09T11:28:17;7.60;;;5.57;;
5129;SDS011;2583;50.946;6.954;2023-10-09T11:31:06;7.67;;;4.03;;
5129;SDS011;2583;50.946;6.954;2023-10-09T11:33:43;4.43;;;3.50;;
5129;SDS011;2583;50.946;6.954;2023-10-09T11:36:11;4.90;;;4.40;;
5129;SDS011;2583;50.946;6.954;2023-10-09T11:38:38;8.30;;;4.33;;
5129;SDS011;2583;50.946;6.954;2023-10-09T11:41:12;4.23;;;3.73;;
5129;SDS011;2583;50.946;6.954;2023-10-09T11:43:49;6.43;;;4.80;;
5129;SDS011;2583;50.946;6.954;2023-10-09T11:46:21;8.57;;;3.87;;
5129;SDS011;2583;50.946;6.954;2023-10-09T11:49:08;6.30;;;4.10;;
5129;SDS011;2583;50.946;6.954;2023-10-09T11:51:48;7.73;;;4.80;;
5129;SDS011;2583;50.946;6.954;2023-10-09T11:54:50;6.90;;;3.90;;
5129;SDS011;2583;50.946;6.954;2023-10-09T11:57:17;6.43;;;3.60;;
5129;SDS011;2583;50.946;6.954;2023-10-09T11:59:44;9.40;;;4.20;;
5129;SDS011;2583;50.946;6.954;2023-10-09T12:02:11;9.93;;;3.97;;
5129;SDS011;2583;50.946;6.954;2023-10-09T12:04:39;6.50;;;4.10;;
5129;SDS011;2583;50.946;6.954;2023-10-09T12:07:12;5.70;;;4.33;;
5129;SDS011;2583;50.946;6.954;2023-10-09T12:09:39;11.90;;;4.43;;
5129;SDS011;2583;50.946;6.954;2023-10-09T12:12:06;4.63;;;4.10;;
5129;SDS011;2583;50.946;6.954;2023-10-09T12:14:37;5.30;;;3.90;;
5129;SDS011;2583;50.946;6.954;2023-10-09T12:17:04;4.90;;;3.47;;
5129;SDS011;2583;50.946;6.954;2023-10-09T12:19:35;9.63;;;4.30;;
5129;SDS011;2583;50.946;6.954;2023-10-09T12:22:07;6.97;;;5.07;;
5129;SDS011;2583;50.946;6.954;2023-10-09T12:24:42;5.70;;;5.07;;
5129;SDS011;2583;50.946;6.954;2023-10-09T12:27:09;6.23;;;4.60;;
5129;SDS011;2583;50.946;6.954;2023-10-09T12:29:37;8.10;;;4.87;;
5129;SDS011;2583;50.946;6.954;2023-10-09T12:32:11;5.70;;;5.10;;
5129;SDS011;2583;50.946;6.954;2023-10-09T12:34:39;8.90;;;4.70;;
5129;SDS011;2583;50.946;6.954;2023-10-09T12:37:05;9.83;;;6.47;;
5129;SDS011;2583;50.946;6.954;2023-10-09T12:39:32;6.83;;;5.47;;
5129;SDS011;2583;50.946;6.954;2023-10-09T12:41:59;7.70;;;5.77;;
5129;SDS011;2583;50.946;6.954;2023-10-09T12:44:35;9.77;;;5.70;;
5129;SDS011;2583;50.946;6.954;2023-10-09T12:47:05;5.97;;;5.30;;
5129;SDS011;2583;50.946;6.954;2023-10-09T12:49:33;8.10;;;5.10;;
5129;SDS011;2583;50.946;6.954;2023-10-09T12:51:59;5.50;;;5.00;;
5129;SDS011;2583;50.946;6.954;2023-10-09T12:54:26;8.57;;;5.00;;
5129;SDS011;2583;50.946;6.954;2023-10-09T12:56:54;5.67;;;5.00;;
5129;SDS011;2583;50.946;6.954;2023-10-09T12:59:21;6.47;;;5.33;;
5129;SDS011;2583;50.946;6.954;2023-10-09T13:01:50;7.47;;;5.10;;
5129;SDS011;2583;50.946;6.954;2023-10-09T13:04:24;7.43;;;4.37;;
5129;SDS011;2583;50.946;6.954;2023-10-09T13:06:58;7.67;;;5.07;;
5129;SDS011;2583;50.946;6.954;2023-10-09T13:09:29;8.77;;;5.43;;
5129;SDS011;2583;50.946;6.954;2023-10-09T13:12:09;14.27;;;5.33;;
5129;SDS011;2583;50.946;6.954;2023-10-09T13:14:44;7.23;;;5.23;;
5129;SDS011;2583;50.946;6.954;2023-10-09T13:17:13;6.37;;;5.10;;
5129;SDS011;2583;50.946;6.954;2023-10-09T13:19:40;9.27;;;6.80;;
5129;SDS011;2583;50.946;6.954;2023-10-09T13:22:10;13.70;;;6.10;;
5129;SDS011;2583;50.946;6.954;2023-10-09T13:24:39;13.57;;;5.53;;
5129;SDS011;2583;50.946;6.954;2023-10-09T13:27:07;8.23;;;4.73;;
5129;SDS011;2583;50.946;6.954;2023-10-09T13:29:36;6.50;;;5.10;;
5129;SDS011;2583;50.946;6.954;2023-10-09T13:32:07;7.63;;;5.10;;
5129;SDS011;2583;50.946;6.954;2023-10-09T13:34:41;7.50;;;4.50;;
5129;SDS011;2583;50.946;6.954;2023-10-09T13:37:11;5.57;;;4.60;;
5129;SDS011;2583;50.946;6.954;2023-10-09T13:39:42;10.00;;;5.17;;
5129;SDS011;2583;50.946;6.954;2023-10-09T13:42:29;5.40;;;4.90;;
5129;SDS011;2583;50.946;6.954;2023-10-09T13:44:56;7.60;;;4.37;;
5129;SDS011;2583;50.946;6.954;2023-10-09T13:47:23;5.63;;;5.13;;
5129;SDS011;2583;50.946;6.954;2023-10-09T13:49:56;6.00;;;5.50;;
5129;SDS011;2583;50.946;6.954;2023-10-09T13:52:23;8.07;;;5.80;;
5129;SDS011;2583;50.946;6.954;2023-10-09T13:54:50;7.80;;;5.40;;
5129;SDS011;2583;50.946;6.954;2023-10-09T13:57:17;7.40;;;5.67;;
5129;SDS011;2583;50.946;6.954;2023-10-09T13:59:48;4.80;;;4.33;;
5129;SDS011;2583;50.946;6.954;2023-10-09T14:02:15;6.23;;;4.70;;
5129;SDS011;2583;50.946;6.954;2023-10-09T14:04:45;9.60;;;4.03;;
5129;SDS011;2583;50.946;6.954;2023-10-09T14:07:16;8.90;;;5.00;;
5129;SDS011;2583;50.946;6.954;2023-10-09T14:09:43;8.53;;;5.10;;
5129;SDS011;2583;50.946;6.954;2023-10-09T14:12:10;8.53;;;4.93;;
5129;SDS011;2583;50.946;6.954;2023-10-09T14:14:43;6.83;;;5.10;;
5129;SDS011;2583;50.946;6.954;2023-10-09T14:19:52;8.33;;;5.60;;
5129;SDS011;2583;50.946;6.954;2023-10-09T14:22:43;8.57;;;4.30;;
5129;SDS011;2583;50.946;6.954;2023-10-09T14:25:11;7.33;;;5.07;;
5129;SDS011;2583;50.946;6.954;2023-10-09T14:27:41;9.23;;;6.67;;
5129;SDS011;2583;50.946;6.954;2023-10-09T14:30:08;5.00;;;4.50;;
5129;SDS011;2583;50.946;6.954;2023-10-09T14:32:39;6.60;;;5.37;;
5129;SDS011;2583;50.946;6.954;2023-10-09T14:35:18;7.60;;;5.20;;
5129;SDS011;2583;50.946;6.954;2023-10-09T14:37:48;7.60;;;4.93;;
5129;SDS011;2583;50.946;6.954;2023-10-09T14:40:14;11.50;;;4.90;;
5129;SDS011;2583;50.946;6.954;2023-10-09T14:42:47;6.03;;;5.47;;
5129;SDS011;2583;50.946;6.954;2023-10-09T14:45:22;7.73;;;6.03;;
5129;SDS011;2583;50.946;6.954;2023-10-09T14:47:55;7.17;;;5.70;;
5129;SDS011;2583;50.946;6.954;2023-10-09T14:50:22;7.00;;;6.00;;
5129;SDS011;2583;50.946;6.954;2023-10-09T14:52:49;8.40;;;5.70;;
5129;SDS011;2583;50.946;6.954;2023-10-09T14:55:17;7.20;;;5.97;;
5129;SDS011;2583;50.946;6.954;2023-10-09T14:57:55;8.00;;;7.20;;
5129;SDS011;2583;50.946;6.954;2023-10-09T15:00:25;8.77;;;5.53;;
5129;SDS011;2583;50.946;6.954;2023-10-09T15:02:52;7.00;;;5.30;;
5129;SDS011;2583;50.946;6.954;2023-10-09T15:05:19;7.70;;;5.93;;
5129;SDS011;2583;50.946;6.954;2023-10-09T15:07:49;10.33;;;6.00;;
5129;SDS011;2583;50.946;6.954;2023-10-09T15:10:18;8.63;;;5.70;;
5129;SDS011;2583;50.946;6.954;2023-10-09T15:12:45;8.10;;;5.63;;
5129;SDS011;2583;50.946;6.954;2023-10-09T15:15:15;7.90;;;6.07;;
5129;SDS011;2583;50.946;6.954;2023-10-09T15:17:42;7.80;;;5.23;;
5129;SDS011;2583;50.946;6.954;2023-10-09T15:20:11;15.10;;;6.90;;
5129;SDS011;2583;50.946;6.954;2023-10-09T15:22:41;6.43;;;5.90;;
5129;SDS011;2583;50.946;6.954;2023-10-09T15:25:10;7.57;;;6.17;;
5129;SDS011;2583;50.946;6.954;2023-10-09T15:27:41;8.43;;;6.13;;
5129;SDS011;2583;50.946;6.954;2023-10-09T15:30:11;7.40;;;5.70;;
5129;SDS011;2583;50.946;6.954;2023-10-09T15:32:43;8.57;;;5.90;;
5129;SDS011;2583;50.946;6.954;2023-10-09T15:35:11;7.67;;;6.97;;
5129;SDS011;2583;50.946;6.954;2023-10-09T15:37:42;8.73;;;6.27;;
5129;SDS011;2583;50.946;6.954;2023-10-09T15:40:09;8.00;;;5.97;;
5129;SDS011;2583;50.946;6.954;2023-10-09T15:42:41;6.87;;;6.27;;
5129;SDS011;2583;50.946;6.954;2023-10-09T15:45:22;12.33;;;6.30;;
5129;SDS011;2583;50.946;6.954;2023-10-09T15:47:50;6.40;;;5.70;;
5129;SDS011;2583;50.946;6.954;2023-10-09T15:50:18;9.00;;;7.10;;
5129;SDS011;2583;50.946;6.954;2023-10-09T15:52:45;6.77;;;5.40;;
5129;SDS011;2583;50.946;6.954;2023-10-09T15:55:15;10.03;;;6.77;;
5129;SDS011;2583;50.946;6.954;2023-10-09T15:57:47;6.53;;;5.93;;
5129;SDS011;2583;50.946;6.954;2023-10-09T16:00:19;12.97;;;6.87;;
5129;SDS011;2583;50.946;6.954;2023-10-09T16:02:47;8.70;;;6.13;;
5129;SDS011;2583;50.946;6.954;2023-10-09T16:05:14;10.80;;;7.37;;
5129;SDS011;2583;50.946;6.954;2023-10-09T16:07:43;7.03;;;6.33;;
5129;SDS011;2583;50.946;6.954;2023-10-09T16:10:10;9.00;;;6.20;;
5129;SDS011;2583;50.946;6.954;2023-10-09T16:12:38;7.23;;;6.17;;
5129;SDS011;2583;50.946;6.954;2023-10-09T16:15:07;13.33;;;6.47;;
5129;SDS011;2583;50.946;6.954;2023-10-09T16:17:35;11.93;;;7.27;;
5129;SDS011;2583;50.946;6.954;2023-10-09T16:20:03;6.30;;;5.70;;
5129;SDS011;2583;50.946;6.954;2023-10-09T16:22:40;8.67;;;6.60;;
5129;SDS011;2583;50.946;6.954;2023-10-09T16:25:07;7.27;;;5.90;;
5129;SDS011;2583;50.946;6.954;2023-10-09T16:27:37;9.40;;;6.20;;
5129;SDS011;2583;50.946;6.954;2023-10-09T16:30:06;8.80;;;6.53;;